sensor_id;sensor_type;location;lat;lon;timestamp;P1;durP1;ratioP1;P2;durP2;ratioP2
7426;SDS011;3755;59.316;18.092;2023-07-31T00:01:25;10.40;;;7.68;;
7426;SDS011;3755;59.316;18.092;2023-07-31T00:03:54;11.45;;;7.10;;
7426;SDS011;3755;59.316;18.092;2023-07-31T00:06:21;10.38;;;7.88;;
7426;SDS011;3755;59.316;18.092;2023-07-31T00:08:48;10.45;;;8.27;;
7426;SDS011;3755;59.316;18.092;2023-07-31T00:11:15;9.52;;;8.38;;
7426;SDS011;3755;59.316;18.092;2023-07-31T00:13:42;11.43;;;8.88;;
7426;SDS011;3755;59.316;18.092;2023-07-31T00:16:09;12.00;;;8.95;;
7426;SDS011;3755;59.316;18.092;2023-07-31T00:18:36;12.35;;;9.30;;
7426;SDS011;3755;59.316;18.092;2023-07-31T00:21:05;11.18;;;8.43;;
7426;SDS011;3755;59.316;18.092;2023-07-31T00:23:32;11.23;;;9.18;;
7426;SDS011;3755;59.316;18.092;2023-07-31T00:25:59;12.00;;;8.77;;
7426;SDS011;3755;59.316;18.092;2023-07-31T00:28:26;10.25;;;7.68;;
7426;SDS011;3755;59.316;18.092;2023-07-31T00:30:54;11.07;;;8.27;;
7426;SDS011;3755;59.316;18.092;2023-07-31T00:33:21;9.95;;;8.02;;
7426;SDS011;3755;59.316;18.092;2023-07-31T00:35:48;8.95;;;8.05;;
7426;SDS011;3755;59.316;18.092;2023-07-31T00:38:17;10.60;;;8.75;;
7426;SDS011;3755;59.316;18.092;2023-07-31T00:40:44;11.50;;;8.27;;
7426;SDS011;3755;59.316;18.092;2023-07-31T00:43:12;10.02;;;8.15;;
7426;SDS011;3755;59.316;18.092;2023-07-31T00:45:39;10.80;;;8.85;;
7426;SDS011;3755;59.316;18.092;2023-07-31T00:48:06;10.55;;;7.88;;
7426;SDS011;3755;59.316;18.092;2023-07-31T00:50:34;10.48;;;7.70;;
7426;SDS011;3755;59.316;18.092;2023-07-31T00:53:01;9.90;;;8.32;;
7426;SDS011;3755;59.316;18.092;2023-07-31T00:55:30;10.02;;;7.88;;
7426;SDS011;3755;59.316;18.092;2023-07-31T00:57:58;9.25;;;7.72;;
7426;SDS011;3755;59.316;18.092;2023-07-31T01:00:25;11.82;;;7.95;;
7426;SDS011;3755;59.316;18.092;2023-07-31T01:02:52;8.98;;;7.35;;
7426;SDS011;3755;59.316;18.092;2023-07-31T01:05:20;9.68;;;7.45;;
7426;SDS011;3755;59.316;18.092;2023-07-31T01:07:56;12.18;;;8.10;;
7426;SDS011;3755;59.316;18.092;2023-07-31T01:10:33;10.32;;;7.60;;
7426;SDS011;3755;59.316;18.092;2023-07-31T01:13:12;10.88;;;7.55;;
7426;SDS011;3755;59.316;18.092;2023-07-31T01:15:40;9.63;;;8.00;;
7426;SDS011;3755;59.316;18.092;2023-07-31T01:18:07;9.85;;;7.63;;
7426;SDS011;3755;59.316;18.092;2023-07-31T01:20:35;11.30;;;8.32;;
7426;SDS011;3755;59.316;18.092;2023-07-31T01:23:08;10.80;;;8.48;;
7426;SDS011;3755;59.316;18.092;2023-07-31T01:26:02;12.82;;;8.23;;
7426;SDS011;3755;59.316;18.092;2023-07-31T01:28:33;10.48;;;7.22;;
7426;SDS011;3755;59.316;18.092;2023-07-31T01:31:07;11.18;;;7.80;;
7426;SDS011;3755;59.316;18.092;2023-07-31T01:33:36;12.00;;;8.77;;
7426;SDS011;3755;59.316;18.092;2023-07-31T01:36:04;11.93;;;7.80;;
7426;SDS011;3755;59.316;18.092;2023-07-31T01:38:32;9.27;;;7.55;;
7426;SDS011;3755;59.316;18.092;2023-07-31T01:41:00;12.23;;;7.95;;
7426;SDS011;3755;59.316;18.092;2023-07-31T01:43:27;8.35;;;7.47;;
7426;SDS011;3755;59.316;18.092;2023-07-31T01:45:54;8.35;;;7.25;;
7426;SDS011;3755;59.316;18.092;2023-07-31T01:48:22;8.70;;;7.47;;
7426;SDS011;3755;59.316;18.092;2023-07-31T01:50:49;9.88;;;7.55;;
7426;SDS011;3755;59.316;18.092;2023-07-31T01:53:16;10.32;;;7.45;;
7426;SDS011;3755;59.316;18.092;2023-07-31T01:55:43;9.70;;;7.93;;
7426;SDS011;3755;59.316;18.092;2023-07-31T01:58:11;10.18;;;7.03;;
7426;SDS011;3755;59.316;18.092;2023-07-31T02:00:39;10.38;;;7.10;;
7426;SDS011;3755;59.316;18.092;2023-07-31T02:03:06;7.20;;;6.32;;
7426;SDS011;3755;59.316;18.092;2023-07-31T02:05:33;9.32;;;7.47;;
7426;SDS011;3755;59.316;18.092;2023-07-31T02:08:00;9.02;;;7.38;;
7426;SDS011;3755;59.316;18.092;2023-07-31T02:10:27;8.05;;;6.65;;
7426;SDS011;3755;59.316;18.092;2023-07-31T02:12:54;10.82;;;7.50;;
7426;SDS011;3755;59.316;18.092;2023-07-31T02:15:24;10.82;;;6.78;;
7426;SDS011;3755;59.316;18.092;2023-07-31T02:17:51;11.35;;;7.13;;
7426;SDS011;3755;59.316;18.092;2023-07-31T02:20:18;7.72;;;6.93;;
7426;SDS011;3755;59.316;18.092;2023-07-31T02:22:45;12.15;;;8.10;;
7426;SDS011;3755;59.316;18.092;2023-07-31T02:25:12;9.75;;;8.38;;
7426;SDS011;3755;59.316;18.092;2023-07-31T02:27:39;10.38;;;7.50;;
7426;SDS011;3755;59.316;18.092;2023-07-31T02:30:07;8.98;;;7.88;;
7426;SDS011;3755;59.316;18.092;2023-07-31T02:32:36;11.38;;;8.38;;
7426;SDS011;3755;59.316;18.092;2023-07-31T02:35:03;9.57;;;7.85;;
7426;SDS011;3755;59.316;18.092;2023-07-31T02:37:31;12.05;;;8.10;;
7426;SDS011;3755;59.316;18.092;2023-07-31T02:39:58;10.73;;;8.55;;
7426;SDS011;3755;59.316;18.092;2023-07-31T02:42:25;9.55;;;8.25;;
7426;SDS011;3755;59.316;18.092;2023-07-31T02:44:52;10.30;;;8.68;;
7426;SDS011;3755;59.316;18.092;2023-07-31T02:47:21;12.23;;;9.73;;
7426;SDS011;3755;59.316;18.092;2023-07-31T02:49:49;10.32;;;8.15;;
7426;SDS011;3755;59.316;18.092;2023-07-31T02:52:16;11.68;;;8.82;;
7426;SDS011;3755;59.316;18.092;2023-07-31T02:54:43;11.93;;;8.20;;
7426;SDS011;3755;59.316;18.092;2023-07-31T02:57:11;13.50;;;9.15;;
7426;SDS011;3755;59.316;18.092;2023-07-31T02:59:38;10.20;;;8.70;;
7426;SDS011;3755;59.316;18.092;2023-07-31T03:02:07;12.18;;;9.30;;
7426;SDS011;3755;59.316;18.092;2023-07-31T03:04:34;9.77;;;8.52;;
7426;SDS011;3755;59.316;18.092;2023-07-31T03:07:03;11.88;;;8.85;;
7426;SDS011;3755;59.316;18.092;2023-07-31T03:09:31;11.32;;;9.43;;
7426;SDS011;3755;59.316;18.092;2023-07-31T03:11:58;11.95;;;8.82;;
7426;SDS011;3755;59.316;18.092;2023-07-31T03:14:25;11.60;;;8.75;;
7426;SDS011;3755;59.316;18.092;2023-07-31T03:16:53;10.98;;;8.70;;
7426;SDS011;3755;59.316;18.092;2023-07-31T03:19:20;11.55;;;8.45;;
7426;SDS011;3755;59.316;18.092;2023-07-31T03:21:47;13.15;;;8.30;;
7426;SDS011;3755;59.316;18.092;2023-07-31T03:24:17;10.57;;;8.05;;
7426;SDS011;3755;59.316;18.092;2023-07-31T03:26:44;11.10;;;8.45;;
7426;SDS011;3755;59.316;18.092;2023-07-31T03:29:11;12.40;;;9.40;;
7426;SDS011;3755;59.316;18.092;2023-07-31T03:31:38;10.98;;;9.40;;
7426;SDS011;3755;59.316;18.092;2023-07-31T03:34:05;11.52;;;9.23;;
7426;SDS011;3755;59.316;18.092;2023-07-31T03:36:32;9.40;;;8.45;;
7426;SDS011;3755;59.316;18.092;2023-07-31T03:38:59;12.52;;;8.85;;
7426;SDS011;3755;59.316;18.092;2023-07-31T03:41:28;12.23;;;9.10;;
7426;SDS011;3755;59.316;18.092;2023-07-31T03:43:55;12.50;;;9.18;;
7426;SDS011;3755;59.316;18.092;2023-07-31T03:46:22;13.57;;;9.32;;
7426;SDS011;3755;59.316;18.092;2023-07-31T03:48:50;13.73;;;8.77;;
7426;SDS011;3755;59.316;18.092;2023-07-31T03:51:17;11.10;;;8.77;;
7426;SDS011;3755;59.316;18.092;2023-07-31T03:53:44;11.88;;;9.05;;
7426;SDS011;3755;59.316;18.092;2023-07-31T03:56:12;13.23;;;9.10;;
7426;SDS011;3755;59.316;18.092;2023-07-31T03:58:40;14.52;;;9.70;;
7426;SDS011;3755;59.316;18.092;2023-07-31T04:01:07;26.92;;;12.05;;
7426;SDS011;3755;59.316;18.092;2023-07-31T04:03:34;22.90;;;12.75;;
7426;SDS011;3755;59.316;18.092;2023-07-31T04:06:01;35.53;;;15.10;;
7426;SDS011;3755;59.316;18.092;2023-07-31T04:08:29;19.02;;;11.15;;
7426;SDS011;3755;59.316;18.092;2023-07-31T04:10:56;17.60;;;9.77;;
7426;SDS011;3755;59.316;18.092;2023-07-31T04:13:24;16.75;;;10.77;;
7426;SDS011;3755;59.316;18.092;2023-07-31T04:15:55;14.77;;;9.50;;
7426;SDS011;3755;59.316;18.092;2023-07-31T04:18:24;17.00;;;10.20;;
7426;SDS011;3755;59.316;18.092;2023-07-31T04:20:51;28.45;;;13.18;;
7426;SDS011;3755;59.316;18.092;2023-07-31T04:23:18;11.65;;;9.43;;
7426;SDS011;3755;59.316;18.092;2023-07-31T04:25:45;14.05;;;9.18;;
7426;SDS011;3755;59.316;18.092;2023-07-31T04:28:13;14.50;;;9.50;;
7426;SDS011;3755;59.316;18.092;2023-07-31T04:30:40;14.50;;;10.05;;
7426;SDS011;3755;59.316;18.092;2023-07-31T04:33:08;11.25;;;9.65;;
7426;SDS011;3755;59.316;18.092;2023-07-31T04:35:35;12.27;;;10.25;;
7426;SDS011;3755;59.316;18.092;2023-07-31T04:38:03;13.35;;;9.90;;
7426;SDS011;3755;59.316;18.092;2023-07-31T04:40:30;14.25;;;10.38;;
7426;SDS011;3755;59.316;18.092;2023-07-31T04:42:57;13.45;;;9.85;;
7426;SDS011;3755;59.316;18.092;2023-07-31T04:45:24;11.43;;;10.18;;
7426;SDS011;3755;59.316;18.092;2023-07-31T04:47:51;11.45;;;8.98;;
7426;SDS011;3755;59.316;18.092;2023-07-31T04:50:20;13.57;;;10.07;;
7426;SDS011;3755;59.316;18.092;2023-07-31T04:52:47;14.02;;;10.43;;
7426;SDS011;3755;59.316;18.092;2023-07-31T04:55:14;10.82;;;9.02;;
7426;SDS011;3755;59.316;18.092;2023-07-31T04:57:41;11.95;;;9.20;;
7426;SDS011;3755;59.316;18.092;2023-07-31T05:00:09;12.65;;;8.75;;
7426;SDS011;3755;59.316;18.092;2023-07-31T05:02:36;13.07;;;9.85;;
7426;SDS011;3755;59.316;18.092;2023-07-31T05:05:04;11.32;;;8.77;;
7426;SDS011;3755;59.316;18.092;2023-07-31T05:07:32;10.13;;;8.57;;
7426;SDS011;3755;59.316;18.092;2023-07-31T05:10:00;12.48;;;8.95;;
7426;SDS011;3755;59.316;18.092;2023-07-31T05:12:27;14.05;;;9.65;;
7426;SDS011;3755;59.316;18.092;2023-07-31T05:14:54;16.75;;;11.15;;
7426;SDS011;3755;59.316;18.092;2023-07-31T05:17:21;19.63;;;10.68;;
7426;SDS011;3755;59.316;18.092;2023-07-31T05:19:48;20.35;;;10.85;;
7426;SDS011;3755;59.316;18.092;2023-07-31T05:22:16;13.98;;;10.45;;
7426;SDS011;3755;59.316;18.092;2023-07-31T05:24:44;19.30;;;11.30;;
7426;SDS011;3755;59.316;18.092;2023-07-31T05:27:11;18.20;;;11.02;;
7426;SDS011;3755;59.316;18.092;2023-07-31T05:29:40;14.77;;;11.07;;
7426;SDS011;3755;59.316;18.092;2023-07-31T05:32:07;13.23;;;10.90;;
7426;SDS011;3755;59.316;18.092;2023-07-31T05:34:35;13.73;;;10.20;;
7426;SDS011;3755;59.316;18.092;2023-07-31T05:37:02;13.05;;;10.43;;
7426;SDS011;3755;59.316;18.092;2023-07-31T05:39:29;11.93;;;9.88;;
7426;SDS011;3755;59.316;18.092;2023-07-31T05:41:58;12.88;;;9.38;;
7426;SDS011;3755;59.316;18.092;2023-07-31T05:44:25;13.45;;;10.07;;
7426;SDS011;3755;59.316;18.092;2023-07-31T05:46:52;13.35;;;9.93;;
7426;SDS011;3755;59.316;18.092;2023-07-31T05:49:19;14.15;;;10.50;;
7426;SDS011;3755;59.316;18.092;2023-07-31T05:51:46;15.95;;;10.13;;
7426;SDS011;3755;59.316;18.092;2023-07-31T05:54:13;16.63;;;10.70;;
7426;SDS011;3755;59.316;18.092;2023-07-31T05:56:40;13.65;;;9.98;;
7426;SDS011;3755;59.316;18.092;2023-07-31T05:59:09;12.93;;;9.57;;
7426;SDS011;3755;59.316;18.092;2023-07-31T06:01:38;10.98;;;8.85;;
7426;SDS011;3755;59.316;18.092;2023-07-31T06:04:05;13.52;;;9.25;;
7426;SDS011;3755;59.316;18.092;2023-07-31T06:06:32;13.55;;;8.95;;
7426;SDS011;3755;59.316;18.092;2023-07-31T06:09:00;12.68;;;9.23;;
7426;SDS011;3755;59.316;18.092;2023-07-31T06:11:28;11.07;;;8.85;;
7426;SDS011;3755;59.316;18.092;2023-07-31T06:13:55;11.93;;;9.80;;
7426;SDS011;3755;59.316;18.092;2023-07-31T06:16:24;11.63;;;9.40;;
7426;SDS011;3755;59.316;18.092;2023-07-31T06:18:52;11.23;;;9.43;;
7426;SDS011;3755;59.316;18.092;2023-07-31T06:21:19;12.88;;;10.20;;
7426;SDS011;3755;59.316;18.092;2023-07-31T06:23:46;10.85;;;9.23;;
7426;SDS011;3755;59.316;18.092;2023-07-31T06:26:14;12.48;;;9.48;;
7426;SDS011;3755;59.316;18.092;2023-07-31T06:28:41;11.60;;;9.38;;
7426;SDS011;3755;59.316;18.092;2023-07-31T06:31:08;11.50;;;9.02;;
7426;SDS011;3755;59.316;18.092;2023-07-31T06:33:37;10.73;;;8.13;;
7426;SDS011;3755;59.316;18.092;2023-07-31T06:36:04;10.68;;;7.80;;
7426;SDS011;3755;59.316;18.092;2023-07-31T06:38:32;11.38;;;6.85;;
7426;SDS011;3755;59.316;18.092;2023-07-31T06:40:59;7.85;;;5.57;;
7426;SDS011;3755;59.316;18.092;2023-07-31T06:43:26;8.43;;;6.10;;
7426;SDS011;3755;59.316;18.092;2023-07-31T06:45:53;11.38;;;7.10;;
7426;SDS011;3755;59.316;18.092;2023-07-31T06:48:21;9.05;;;6.78;;
7426;SDS011;3755;59.316;18.092;2023-07-31T06:50:49;8.48;;;6.18;;
7426;SDS011;3755;59.316;18.092;2023-07-31T06:53:16;9.98;;;5.93;;
7426;SDS011;3755;59.316;18.092;2023-07-31T06:55:44;8.60;;;6.20;;
7426;SDS011;3755;59.316;18.092;2023-07-31T06:58:13;7.50;;;4.93;;
7426;SDS011;3755;59.316;18.092;2023-07-31T07:00:40;5.70;;;4.20;;
7426;SDS011;3755;59.316;18.092;2023-07-31T07:03:07;8.35;;;4.93;;
7426;SDS011;3755;59.316;18.092;2023-07-31T07:05:34;7.90;;;4.40;;
7426;SDS011;3755;59.316;18.092;2023-07-31T07:08:03;5.75;;;3.92;;
7426;SDS011;3755;59.316;18.092;2023-07-31T07:10:30;9.82;;;4.00;;
7426;SDS011;3755;59.316;18.092;2023-07-31T07:12:58;5.18;;;3.30;;
7426;SDS011;3755;59.316;18.092;2023-07-31T07:15:25;7.13;;;3.95;;
7426;SDS011;3755;59.316;18.092;2023-07-31T07:17:52;5.03;;;3.50;;
7426;SDS011;3755;59.316;18.092;2023-07-31T07:20:19;6.53;;;4.13;;
7426;SDS011;3755;59.316;18.092;2023-07-31T07:22:46;5.70;;;3.60;;
7426;SDS011;3755;59.316;18.092;2023-07-31T07:25:15;5.93;;;3.65;;
7426;SDS011;3755;59.316;18.092;2023-07-31T07:27:42;6.70;;;3.65;;
7426;SDS011;3755;59.316;18.092;2023-07-31T07:30:10;8.10;;;3.40;;
7426;SDS011;3755;59.316;18.092;2023-07-31T07:32:37;6.20;;;3.58;;
7426;SDS011;3755;59.316;18.092;2023-07-31T07:35:04;4.82;;;3.35;;
7426;SDS011;3755;59.316;18.092;2023-07-31T07:37:32;10.25;;;4.13;;
7426;SDS011;3755;59.316;18.092;2023-07-31T07:40:00;5.30;;;3.38;;
7426;SDS011;3755;59.316;18.092;2023-07-31T07:42:29;11.07;;;4.32;;
7426;SDS011;3755;59.316;18.092;2023-07-31T07:44:56;8.13;;;3.83;;
7426;SDS011;3755;59.316;18.092;2023-07-31T07:47:23;5.88;;;3.70;;
7426;SDS011;3755;59.316;18.092;2023-07-31T07:49:51;10.90;;;4.93;;
7426;SDS011;3755;59.316;18.092;2023-07-31T07:52:18;9.02;;;4.03;;
7426;SDS011;3755;59.316;18.092;2023-07-31T07:54:45;6.85;;;3.80;;
7426;SDS011;3755;59.316;18.092;2023-07-31T07:57:12;8.88;;;4.70;;
7426;SDS011;3755;59.316;18.092;2023-07-31T07:59:41;6.97;;;4.05;;
7426;SDS011;3755;59.316;18.092;2023-07-31T08:02:09;6.93;;;3.35;;
7426;SDS011;3755;59.316;18.092;2023-07-31T08:04:36;7.80;;;3.67;;
7426;SDS011;3755;59.316;18.092;2023-07-31T08:07:03;9.75;;;4.85;;
7426;SDS011;3755;59.316;18.092;2023-07-31T08:09:31;8.15;;;3.80;;
7426;SDS011;3755;59.316;18.092;2023-07-31T08:11:58;6.80;;;4.07;;
7426;SDS011;3755;59.316;18.092;2023-07-31T08:14:28;9.05;;;4.30;;
7426;SDS011;3755;59.316;18.092;2023-07-31T08:16:56;7.25;;;4.03;;
7426;SDS011;3755;59.316;18.092;2023-07-31T08:19:24;9.07;;;3.90;;
7426;SDS011;3755;59.316;18.092;2023-07-31T08:21:51;5.60;;;3.53;;
7426;SDS011;3755;59.316;18.092;2023-07-31T08:24:18;8.35;;;4.32;;
7426;SDS011;3755;59.316;18.092;2023-07-31T08:26:46;4.40;;;3.55;;
7426;SDS011;3755;59.316;18.092;2023-07-31T08:29:13;5.85;;;3.72;;
7426;SDS011;3755;59.316;18.092;2023-07-31T08:31:40;8.25;;;3.60;;
7426;SDS011;3755;59.316;18.092;2023-07-31T08:34:09;9.30;;;3.78;;
7426;SDS011;3755;59.316;18.092;2023-07-31T08:36:36;5.80;;;3.75;;
7426;SDS011;3755;59.316;18.092;2023-07-31T08:39:04;6.82;;;3.38;;
7426;SDS011;3755;59.316;18.092;2023-07-31T08:41:31;9.32;;;3.72;;
7426;SDS011;3755;59.316;18.092;2023-07-31T08:44:06;6.82;;;4.22;;
7426;SDS011;3755;59.316;18.092;2023-07-31T08:46:33;7.07;;;3.97;;
7426;SDS011;3755;59.316;18.092;2023-07-31T08:49:02;7.85;;;4.10;;
7426;SDS011;3755;59.316;18.092;2023-07-31T08:51:33;9.95;;;4.05;;
7426;SDS011;3755;59.316;18.092;2023-07-31T08:54:00;10.00;;;3.50;;
7426;SDS011;3755;59.316;18.092;2023-07-31T08:56:29;5.95;;;3.10;;
7426;SDS011;3755;59.316;18.092;2023-07-31T08:58:57;6.80;;;3.50;;
7426;SDS011;3755;59.316;18.092;2023-07-31T09:01:28;9.35;;;3.92;;
7426;SDS011;3755;59.316;18.092;2023-07-31T09:03:58;7.97;;;3.08;;
7426;SDS011;3755;59.316;18.092;2023-07-31T09:06:27;3.40;;;2.72;;
7426;SDS011;3755;59.316;18.092;2023-07-31T09:08:58;4.03;;;3.13;;
7426;SDS011;3755;59.316;18.092;2023-07-31T09:11:25;4.18;;;2.60;;
7426;SDS011;3755;59.316;18.092;2023-07-31T09:13:53;6.22;;;2.92;;
7426;SDS011;3755;59.316;18.092;2023-07-31T09:16:27;6.70;;;2.80;;
7426;SDS011;3755;59.316;18.092;2023-07-31T09:18:55;8.05;;;3.53;;
7426;SDS011;3755;59.316;18.092;2023-07-31T09:21:23;5.32;;;2.60;;
7426;SDS011;3755;59.316;18.092;2023-07-31T09:23:53;7.68;;;2.92;;
7426;SDS011;3755;59.316;18.092;2023-07-31T09:26:32;5.78;;;2.13;;
7426;SDS011;3755;59.316;18.092;2023-07-31T09:29:00;6.82;;;2.08;;
7426;SDS011;3755;59.316;18.092;2023-07-31T09:31:33;5.03;;;2.38;;
7426;SDS011;3755;59.316;18.092;2023-07-31T09:34:07;5.18;;;2.10;;
7426;SDS011;3755;59.316;18.092;2023-07-31T09:36:39;3.85;;;2.10;;
7426;SDS011;3755;59.316;18.092;2023-07-31T09:39:08;4.88;;;2.03;;
7426;SDS011;3755;59.316;18.092;2023-07-31T09:41:37;5.22;;;2.47;;
7426;SDS011;3755;59.316;18.092;2023-07-31T09:44:05;3.70;;;1.98;;
7426;SDS011;3755;59.316;18.092;2023-07-31T09:46:34;6.07;;;2.20;;
7426;SDS011;3755;59.316;18.092;2023-07-31T09:49:03;3.00;;;1.70;;
7426;SDS011;3755;59.316;18.092;2023-07-31T09:51:32;5.70;;;1.95;;
7426;SDS011;3755;59.316;18.092;2023-07-31T09:54:03;4.35;;;2.03;;
7426;SDS011;3755;59.316;18.092;2023-07-31T09:56:37;4.43;;;1.90;;
7426;SDS011;3755;59.316;18.092;2023-07-31T09:59:08;5.32;;;1.83;;
7426;SDS011;3755;59.316;18.092;2023-07-31T10:01:38;7.10;;;2.03;;
7426;SDS011;3755;59.316;18.092;2023-07-31T10:04:07;2.45;;;1.65;;
7426;SDS011;3755;59.316;18.092;2023-07-31T10:06:37;4.45;;;2.15;;
7426;SDS011;3755;59.316;18.092;2023-07-31T10:09:05;5.22;;;1.98;;
7426;SDS011;3755;59.316;18.092;2023-07-31T10:11:34;3.13;;;1.88;;
7426;SDS011;3755;59.316;18.092;2023-07-31T10:14:09;5.20;;;2.15;;
7426;SDS011;3755;59.316;18.092;2023-07-31T10:16:37;6.15;;;2.25;;
7426;SDS011;3755;59.316;18.092;2023-07-31T10:19:06;4.65;;;3.30;;
7426;SDS011;3755;59.316;18.092;2023-07-31T10:21:34;3.20;;;1.63;;
7426;SDS011;3755;59.316;18.092;2023-07-31T10:24:03;2.97;;;1.67;;
7426;SDS011;3755;59.316;18.092;2023-07-31T10:26:31;6.68;;;2.60;;
7426;SDS011;3755;59.316;18.092;2023-07-31T10:29:02;5.13;;;2.40;;
7426;SDS011;3755;59.316;18.092;2023-07-31T10:31:30;4.32;;;1.65;;
7426;SDS011;3755;59.316;18.092;2023-07-31T10:33:57;2.72;;;1.77;;
7426;SDS011;3755;59.316;18.092;2023-07-31T10:36:28;4.97;;;2.03;;
7426;SDS011;3755;59.316;18.092;2023-07-31T10:38:56;4.35;;;1.60;;
7426;SDS011;3755;59.316;18.092;2023-07-31T10:41:33;4.00;;;1.77;;
7426;SDS011;3755;59.316;18.092;2023-07-31T10:44:04;2.00;;;1.33;;
7426;SDS011;3755;59.316;18.092;2023-07-31T10:46:33;2.00;;;1.55;;
7426;SDS011;3755;59.316;18.092;2023-07-31T10:49:01;2.95;;;1.52;;
7426;SDS011;3755;59.316;18.092;2023-07-31T10:51:32;4.22;;;1.80;;
7426;SDS011;3755;59.316;18.092;2023-07-31T10:54:10;4.20;;;1.80;;
7426;SDS011;3755;59.316;18.092;2023-07-31T10:56:40;4.20;;;1.75;;
7426;SDS011;3755;59.316;18.092;2023-07-31T10:59:13;5.18;;;1.70;;
7426;SDS011;3755;59.316;18.092;2023-07-31T11:01:52;4.35;;;1.83;;
7426;SDS011;3755;59.316;18.092;2023-07-31T11:04:22;3.92;;;1.75;;
7426;SDS011;3755;59.316;18.092;2023-07-31T11:06:56;5.20;;;1.80;;
7426;SDS011;3755;59.316;18.092;2023-07-31T11:09:24;6.82;;;1.90;;
7426;SDS011;3755;59.316;18.092;2023-07-31T11:11:56;4.95;;;1.60;;
7426;SDS011;3755;59.316;18.092;2023-07-31T11:14:24;4.50;;;1.63;;
7426;SDS011;3755;59.316;18.092;2023-07-31T11:16:52;4.03;;;1.30;;
7426;SDS011;3755;59.316;18.092;2023-07-31T11:19:22;6.63;;;1.42;;
7426;SDS011;3755;59.316;18.092;2023-07-31T11:21:50;4.50;;;1.80;;
7426;SDS011;3755;59.316;18.092;2023-07-31T11:24:18;2.75;;;1.60;;
7426;SDS011;3755;59.316;18.092;2023-07-31T11:26:49;3.45;;;1.52;;
7426;SDS011;3755;59.316;18.092;2023-07-31T11:29:16;8.52;;;1.90;;
7426;SDS011;3755;59.316;18.092;2023-07-31T11:31:47;3.97;;;2.70;;
7426;SDS011;3755;59.316;18.092;2023-07-31T11:34:14;4.82;;;2.38;;
7426;SDS011;3755;59.316;18.092;2023-07-31T11:36:52;4.78;;;1.70;;
7426;SDS011;3755;59.316;18.092;2023-07-31T11:39:20;4.40;;;1.80;;
7426;SDS011;3755;59.316;18.092;2023-07-31T11:41:47;3.22;;;1.90;;
7426;SDS011;3755;59.316;18.092;2023-07-31T11:44:14;3.25;;;1.75;;
7426;SDS011;3755;59.316;18.092;2023-07-31T11:46:41;5.18;;;1.52;;
7426;SDS011;3755;59.316;18.092;2023-07-31T11:49:10;4.38;;;1.70;;
7426;SDS011;3755;59.316;18.092;2023-07-31T11:51:38;3.60;;;1.80;;
7426;SDS011;3755;59.316;18.092;2023-07-31T11:54:06;4.15;;;2.35;;
7426;SDS011;3755;59.316;18.092;2023-07-31T11:56:34;4.43;;;2.20;;
7426;SDS011;3755;59.316;18.092;2023-07-31T11:59:01;4.45;;;2.00;;
7426;SDS011;3755;59.316;18.092;2023-07-31T12:01:30;3.17;;;1.85;;
7426;SDS011;3755;59.316;18.092;2023-07-31T12:03:58;4.88;;;1.90;;
7426;SDS011;3755;59.316;18.092;2023-07-31T12:06:33;4.00;;;2.28;;
7426;SDS011;3755;59.316;18.092;2023-07-31T12:09:02;3.28;;;1.88;;
7426;SDS011;3755;59.316;18.092;2023-07-31T12:11:30;4.72;;;2.00;;
7426;SDS011;3755;59.316;18.092;2023-07-31T12:13:57;3.95;;;2.47;;
7426;SDS011;3755;59.316;18.092;2023-07-31T12:16:26;4.10;;;2.47;;
7426;SDS011;3755;59.316;18.092;2023-07-31T12:18:54;5.97;;;3.03;;
7426;SDS011;3755;59.316;18.092;2023-07-31T12:21:21;2.75;;;2.20;;
7426;SDS011;3755;59.316;18.092;2023-07-31T12:23:51;2.05;;;1.85;;
7426;SDS011;3755;59.316;18.092;2023-07-31T12:26:19;2.85;;;1.95;;
7426;SDS011;3755;59.316;18.092;2023-07-31T12:28:49;4.72;;;2.20;;
7426;SDS011;3755;59.316;18.092;2023-07-31T12:31:17;4.38;;;2.22;;
7426;SDS011;3755;59.316;18.092;2023-07-31T12:33:47;4.32;;;2.22;;
7426;SDS011;3755;59.316;18.092;2023-07-31T12:36:16;3.78;;;1.88;;
7426;SDS011;3755;59.316;18.092;2023-07-31T12:38:44;3.53;;;1.75;;
7426;SDS011;3755;59.316;18.092;2023-07-31T12:41:13;4.32;;;1.92;;
7426;SDS011;3755;59.316;18.092;2023-07-31T12:43:41;2.97;;;1.80;;
7426;SDS011;3755;59.316;18.092;2023-07-31T12:46:09;2.65;;;1.73;;
7426;SDS011;3755;59.316;18.092;2023-07-31T12:48:37;4.68;;;2.10;;
7426;SDS011;3755;59.316;18.092;2023-07-31T12:51:04;2.40;;;1.30;;
7426;SDS011;3755;59.316;18.092;2023-07-31T12:53:32;3.92;;;1.92;;
7426;SDS011;3755;59.316;18.092;2023-07-31T12:56:00;4.07;;;2.13;;
7426;SDS011;3755;59.316;18.092;2023-07-31T12:58:29;7.35;;;2.05;;
7426;SDS011;3755;59.316;18.092;2023-07-31T13:00:56;4.30;;;2.55;;
7426;SDS011;3755;59.316;18.092;2023-07-31T13:03:24;6.00;;;2.17;;
7426;SDS011;3755;59.316;18.092;2023-07-31T13:05:51;5.13;;;2.63;;
7426;SDS011;3755;59.316;18.092;2023-07-31T13:08:19;5.70;;;2.03;;
7426;SDS011;3755;59.316;18.092;2023-07-31T13:10:46;2.42;;;1.90;;
7426;SDS011;3755;59.316;18.092;2023-07-31T13:13:13;2.75;;;2.13;;
7426;SDS011;3755;59.316;18.092;2023-07-31T13:15:43;3.65;;;1.85;;
7426;SDS011;3755;59.316;18.092;2023-07-31T13:18:10;4.63;;;1.80;;
7426;SDS011;3755;59.316;18.092;2023-07-31T13:20:37;4.03;;;1.77;;
7426;SDS011;3755;59.316;18.092;2023-07-31T13:23:07;3.80;;;1.83;;
7426;SDS011;3755;59.316;18.092;2023-07-31T13:25:34;7.15;;;2.10;;
7426;SDS011;3755;59.316;18.092;2023-07-31T13:28:01;4.10;;;1.95;;
7426;SDS011;3755;59.316;18.092;2023-07-31T13:30:29;3.03;;;1.70;;
7426;SDS011;3755;59.316;18.092;2023-07-31T13:32:59;2.92;;;1.88;;
7426;SDS011;3755;59.316;18.092;2023-07-31T13:35:26;4.57;;;2.20;;
7426;SDS011;3755;59.316;18.092;2023-07-31T13:37:53;3.40;;;2.20;;
7426;SDS011;3755;59.316;18.092;2023-07-31T13:40:20;3.05;;;1.45;;
7426;SDS011;3755;59.316;18.092;2023-07-31T13:42:48;4.57;;;2.20;;
7426;SDS011;3755;59.316;18.092;2023-07-31T13:45:16;5.28;;;2.40;;
7426;SDS011;3755;59.316;18.092;2023-07-31T13:47:43;4.57;;;1.83;;
7426;SDS011;3755;59.316;18.092;2023-07-31T13:50:12;6.22;;;2.30;;
7426;SDS011;3755;59.316;18.092;2023-07-31T13:52:39;3.53;;;2.15;;
7426;SDS011;3755;59.316;18.092;2023-07-31T13:55:07;3.40;;;2.00;;
7426;SDS011;3755;59.316;18.092;2023-07-31T13:57:34;4.20;;;2.17;;
7426;SDS011;3755;59.316;18.092;2023-07-31T14:00:02;3.58;;;1.85;;
7426;SDS011;3755;59.316;18.092;2023-07-31T14:02:29;2.28;;;1.70;;
7426;SDS011;3755;59.316;18.092;2023-07-31T14:04:57;3.15;;;2.00;;
7426;SDS011;3755;59.316;18.092;2023-07-31T14:07:25;7.03;;;2.40;;
7426;SDS011;3755;59.316;18.092;2023-07-31T14:09:52;3.85;;;1.98;;
7426;SDS011;3755;59.316;18.092;2023-07-31T14:12:20;3.13;;;2.10;;
7426;SDS011;3755;59.316;18.092;2023-07-31T14:14:47;2.90;;;1.92;;
7426;SDS011;3755;59.316;18.092;2023-07-31T14:17:14;2.97;;;2.10;;
7426;SDS011;3755;59.316;18.092;2023-07-31T14:19:42;4.57;;;2.40;;
7426;SDS011;3755;59.316;18.092;2023-07-31T14:22:09;4.55;;;2.20;;
7426;SDS011;3755;59.316;18.092;2023-07-31T14:24:38;6.07;;;2.53;;
7426;SDS011;3755;59.316;18.092;2023-07-31T14:27:05;4.00;;;2.40;;
7426;SDS011;3755;59.316;18.092;2023-07-31T14:29:32;5.57;;;2.97;;
7426;SDS011;3755;59.316;18.092;2023-07-31T14:31:59;6.03;;;2.50;;
7426;SDS011;3755;59.316;18.092;2023-07-31T14:34:26;5.80;;;2.42;;
7426;SDS011;3755;59.316;18.092;2023-07-31T14:36:54;4.78;;;2.55;;
7426;SDS011;3755;59.316;18.092;2023-07-31T14:39:21;2.53;;;2.15;;
7426;SDS011;3755;59.316;18.092;2023-07-31T14:41:49;4.18;;;2.47;;
7426;SDS011;3755;59.316;18.092;2023-07-31T14:44:16;3.30;;;2.45;;
7426;SDS011;3755;59.316;18.092;2023-07-31T14:46:44;5.13;;;2.80;;
7426;SDS011;3755;59.316;18.092;2023-07-31T14:49:11;5.10;;;2.90;;
7426;SDS011;3755;59.316;18.092;2023-07-31T14:51:38;5.22;;;2.75;;
7426;SDS011;3755;59.316;18.092;2023-07-31T14:54:06;5.82;;;3.22;;
7426;SDS011;3755;59.316;18.092;2023-07-31T14:56:33;4.95;;;3.00;;
7426;SDS011;3755;59.316;18.092;2023-07-31T14:59:02;6.22;;;3.15;;
7426;SDS011;3755;59.316;18.092;2023-07-31T15:01:29;3.97;;;2.70;;